createdAt,value
2023-05-08T00:01:07.214Z,12.07
2023-05-08T00:03:36.727Z,13.50
2023-05-08T00:06:06.660Z,12.90
2023-05-08T00:08:36.122Z,12.50
2023-05-08T00:11:07.074Z,12.05
2023-05-08T00:13:36.268Z,10.98
2023-05-08T00:16:05.274Z,12.60
2023-05-08T00:18:34.230Z,13.02
2023-05-08T00:21:03.488Z,11.68
2023-05-08T00:23:32.566Z,13.18
2023-05-08T00:26:01.510Z,11.82
2023-05-08T00:28:32.323Z,13.27
2023-05-08T00:31:02.483Z,11.52
2023-05-08T00:33:31.568Z,11.50
2023-05-08T00:36:01.374Z,11.40
2023-05-08T00:38:32.189Z,12.35
2023-05-08T00:41:01.604Z,10.82
2023-05-08T00:43:32.088Z,11.40
2023-05-08T00:46:02.493Z,12.73
2023-05-08T00:48:34.068Z,12.85
2023-05-08T00:51:04.767Z,11.55
2023-05-08T00:53:35.442Z,12.05
2023-05-08T00:56:05.369Z,12.73
2023-05-08T00:58:35.678Z,11.60
2023-05-08T01:01:05.234Z,11.48
2023-05-08T01:03:35.136Z,10.70
2023-05-08T01:06:04.392Z,12.55
2023-05-08T01:08:33.589Z,11.38
2023-05-08T01:11:08.618Z,11.75
2023-05-08T01:13:44.439Z,10.05
2023-05-08T01:16:16.517Z,11.63
2023-05-08T01:18:49.616Z,11.00
2023-05-08T01:21:24.081Z,10.02
2023-05-08T01:24:07.282Z,11.15
2023-05-08T01:26:55.223Z,10.18
2023-05-08T01:29:35.791Z,10.20
2023-05-08T01:32:16.913Z,9.60
2023-05-08T01:34:48.570Z,9.93
2023-05-08T01:37:19.078Z,9.32
2023-05-08T01:39:53.720Z,9.63
2023-05-08T01:42:26.156Z,11.30
2023-05-08T01:44:56.764Z,10.40
2023-05-08T01:47:28.793Z,10.85
2023-05-08T01:50:03.716Z,9.15
2023-05-08T01:52:35.025Z,9.45
2023-05-08T01:55:05.986Z,9.90
2023-05-08T01:57:36.904Z,11.27
2023-05-08T02:00:08.030Z,9.90
2023-05-08T02:02:41.974Z,10.88
2023-05-08T02:05:12.399Z,10.10
2023-05-08T02:07:42.113Z,10.52
2023-05-08T02:10:12.185Z,9.30
2023-05-08T02:12:41.784Z,9.00
2023-05-08T02:15:13.288Z,10.27
2023-05-08T02:17:44.597Z,9.63
2023-05-08T02:20:15.384Z,9.30
2023-05-08T02:22:46.552Z,8.25
2023-05-08T02:25:16.935Z,8.25
2023-05-08T02:27:49.709Z,10.27
2023-05-08T02:30:21.291Z,8.80
2023-05-08T02:32:52.300Z,10.07
2023-05-08T02:35:24.082Z,9.02
2023-05-08T02:37:55.547Z,8.77
2023-05-08T02:40:26.674Z,9.43
2023-05-08T02:42:56.367Z,8.85
2023-05-08T02:45:27.864Z,10.18
2023-05-08T02:48:03.606Z,8.15
2023-05-08T02:50:37.819Z,9.68
2023-05-08T02:53:09.829Z,8.70
2023-05-08T02:55:42.265Z,9.55
2023-05-08T02:58:16.589Z,9.38
2023-05-08T03:00:48.294Z,9.50
2023-05-08T03:03:23.126Z,8.95
2023-05-08T03:05:54.082Z,9.68
2023-05-08T03:08:26.021Z,8.35
2023-05-08T03:10:57.494Z,8.45
2023-05-08T03:13:27.769Z,8.00
2023-05-08T03:15:57.800Z,7.95
2023-05-08T03:18:33.021Z,7.57
2023-05-08T03:21:02.481Z,8.48
2023-05-08T03:23:32.468Z,9.23
2023-05-08T03:26:02.853Z,10.05
2023-05-08T03:28:32.422Z,9.15
2023-05-08T03:31:02.867Z,8.77
2023-05-08T03:33:34.480Z,9.32
2023-05-08T03:36:03.806Z,8.73
2023-05-08T03:38:32.981Z,9.27
2023-05-08T03:41:01.936Z,9.18
2023-05-08T03:43:31.392Z,9.13
2023-05-08T03:46:00.698Z,9.07
2023-05-08T03:48:30.723Z,8.35
2023-05-08T03:51:03.241Z,8.88
2023-05-08T03:53:33.474Z,9.05
2023-05-08T03:56:04.857Z,9.95
2023-05-08T03:58:38.540Z,9.20
2023-05-08T04:01:09.880Z,9.30
2023-05-08T04:03:45.620Z,10.38
2023-05-08T04:06:18.764Z,9.63
2023-05-08T04:08:51.464Z,8.38
2023-05-08T04:11:27.875Z,9.13
2023-05-08T04:14:03.785Z,8.95
2023-05-08T04:16:37.278Z,8.90
2023-05-08T04:19:11.026Z,9.68
2023-05-08T04:21:45.260Z,10.00
2023-05-08T04:24:15.873Z,9.20
2023-05-08T04:26:46.405Z,9.68
2023-05-08T04:29:16.677Z,10.25
2023-05-08T04:31:46.128Z,8.63
2023-05-08T04:34:15.638Z,10.45
2023-05-08T04:36:46.711Z,9.13
2023-05-08T04:39:16.261Z,9.25
2023-05-08T04:41:45.313Z,8.48
2023-05-08T04:44:14.840Z,8.35
2023-05-08T04:46:45.788Z,7.53
2023-05-08T04:49:15.275Z,7.43
2023-05-08T04:51:46.412Z,7.88
2023-05-08T04:54:15.703Z,8.43
2023-05-08T04:56:45.093Z,7.60
2023-05-08T04:59:16.088Z,7.05
2023-05-08T05:01:47.569Z,7.22
2023-05-08T05:04:16.851Z,7.22
2023-05-08T05:06:47.445Z,7.35
2023-05-08T05:09:16.449Z,6.70
2023-05-08T05:11:45.560Z,6.75
2023-05-08T05:14:14.929Z,6.55
2023-05-08T05:16:43.968Z,6.28
2023-05-08T05:19:13.094Z,6.55
2023-05-08T05:21:42.119Z,7.55
2023-05-08T05:24:12.438Z,6.75
2023-05-08T05:26:41.737Z,6.78
2023-05-08T05:29:10.767Z,6.72
2023-05-08T05:31:41.847Z,6.55
2023-05-08T05:34:11.229Z,5.32
2023-05-08T05:36:40.451Z,4.88
2023-05-08T05:39:09.986Z,5.38
2023-05-08T05:41:42.247Z,6.03
2023-05-08T05:44:12.374Z,6.60
2023-05-08T05:46:44.120Z,5.65
2023-05-08T05:49:14.557Z,6.50
2023-05-08T05:51:43.937Z,5.97
2023-05-08T05:54:14.549Z,5.30
2023-05-08T05:56:44.939Z,7.22
2023-05-08T05:59:13.963Z,6.22
2023-05-08T06:01:43.201Z,5.90
2023-05-08T06:04:12.577Z,5.35
2023-05-08T06:06:42.053Z,6.72
2023-05-08T06:09:11.027Z,6.30
2023-05-08T06:11:40.602Z,5.45
2023-05-08T06:14:11.209Z,6.88
2023-05-08T06:16:40.932Z,7.45
2023-05-08T06:19:10.078Z,6.75
2023-05-08T06:21:39.863Z,7.40
2023-05-08T06:24:09.252Z,6.55
2023-05-08T06:26:38.401Z,6.53
2023-05-08T06:29:07.764Z,6.55
2023-05-08T06:31:38.255Z,6.20
2023-05-08T06:34:07.156Z,6.70
2023-05-08T06:36:36.452Z,6.03
2023-05-08T06:39:06.661Z,5.97
2023-05-08T06:41:35.962Z,6.13
2023-05-08T06:44:04.896Z,5.45
2023-05-08T06:46:33.847Z,5.32
2023-05-08T06:49:04.248Z,6.45
2023-05-08T06:51:35.519Z,6.60
2023-05-08T06:54:07.832Z,5.93
2023-05-08T06:56:39.867Z,6.40
2023-05-08T07:01:39.440Z,5.22
2023-05-08T07:04:10.005Z,5.78
2023-05-08T07:06:38.961Z,6.00
2023-05-08T07:09:08.079Z,5.30
2023-05-08T07:11:37.187Z,5.85
2023-05-08T07:14:06.307Z,5.55
2023-05-08T07:16:35.896Z,5.38
2023-05-08T07:19:05.379Z,5.53
2023-05-08T07:21:36.016Z,5.75
2023-05-08T07:24:05.586Z,5.40
2023-05-08T07:26:34.999Z,6.18
2023-05-08T07:29:04.046Z,5.32
2023-05-08T07:31:33.071Z,5.63
2023-05-08T07:34:02.516Z,6.50
2023-05-08T07:36:31.421Z,7.90
2023-05-08T07:39:02.608Z,7.90
2023-05-08T07:41:31.640Z,6.30
